createdAt,value
2023-02-15T00:02:26.212Z,87.65
2023-02-15T00:07:26.877Z,87.45
2023-02-15T00:12:28.867Z,87.50
2023-02-15T00:17:30.427Z,87.36
2023-02-15T00:22:31.081Z,87.53
2023-02-15T00:27:33.065Z,87.22
2023-02-15T00:32:33.739Z,87.50
2023-02-15T00:37:34.504Z,87.86
2023-02-15T00:42:38.751Z,87.90
2023-02-15T00:47:39.426Z,87.18
2023-02-15T00:52:40.095Z,87.63
2023-02-15T00:57:42.078Z,87.45
2023-02-15T01:02:42.760Z,87.33
2023-02-15T01:07:43.421Z,87.75
2023-02-15T01:12:45.458Z,87.49
2023-02-15T01:17:52.104Z,87.73
2023-02-15T01:22:53.752Z,87.46
2023-02-15T01:27:56.813Z,87.44
2023-02-15T01:32:58.284Z,87.93
2023-02-15T01:37:59.390Z,87.84
2023-02-15T01:43:01.418Z,88.07
2023-02-15T01:48:05.557Z,88.12
2023-02-15T01:53:11.769Z,88.23
2023-02-15T01:58:15.178Z,88.49
2023-02-15T02:03:16.704Z,88.49
2023-02-15T02:08:17.435Z,88.13
2023-02-15T02:13:19.446Z,88.67
2023-02-15T02:18:30.003Z,88.18
2023-02-15T02:23:47.571Z,88.24
2023-02-15T02:29:17.991Z,88.35
2023-02-15T02:34:27.802Z,88.61
2023-02-15T02:39:39.456Z,89.02
2023-02-15T02:44:45.367Z,88.56
2023-02-15T02:49:47.419Z,88.53
2023-02-15T02:54:48.135Z,88.84
2023-02-15T02:59:52.338Z,88.50
2023-02-15T03:05:05.222Z,88.81
2023-02-15T03:10:09.905Z,88.96
2023-02-15T03:15:16.877Z,88.68
2023-02-15T03:20:26.452Z,88.62
2023-02-15T03:25:33.571Z,89.27
2023-02-15T03:30:38.038Z,88.78
2023-02-15T03:35:48.448Z,89.06
2023-02-15T03:41:07.245Z,88.73
2023-02-15T03:46:14.296Z,88.64
2023-02-15T03:51:36.297Z,89.07
2023-02-15T03:56:38.678Z,89.08
2023-02-15T04:01:59.230Z,88.77
2023-02-15T04:07:01.373Z,89.03
2023-02-15T04:12:01.995Z,89.02
2023-02-15T04:17:02.661Z,89.23
2023-02-15T04:22:22.412Z,88.71
2023-02-15T04:27:23.047Z,89.22
2023-02-15T04:32:23.723Z,88.74
2023-02-15T04:37:25.764Z,88.79
2023-02-15T04:42:26.930Z,88.74
2023-02-15T04:47:27.790Z,88.64
2023-02-15T04:52:29.754Z,88.57
2023-02-15T04:57:30.415Z,88.94
2023-02-15T05:02:31.107Z,89.50
2023-02-15T05:07:33.087Z,89.12
2023-02-15T05:12:33.749Z,89.36
2023-02-15T05:17:34.755Z,88.91
2023-02-15T05:22:36.787Z,88.82
2023-02-15T05:27:55.202Z,89.01
2023-02-15T05:32:55.864Z,89.06
2023-02-15T05:37:57.885Z,89.25
2023-02-15T05:42:58.697Z,89.52
2023-02-15T05:48:00.071Z,89.13
2023-02-15T05:53:02.156Z,88.95
2023-02-15T05:58:02.817Z,89.10
2023-02-15T06:03:03.531Z,88.87
2023-02-15T06:08:06.150Z,88.95
2023-02-15T06:13:06.828Z,89.28
2023-02-15T06:18:07.948Z,87.88
2023-02-15T06:23:10.088Z,88.17
2023-02-15T06:28:10.751Z,87.84
2023-02-15T06:33:11.468Z,88.05
2023-02-15T06:38:14.517Z,88.57
2023-02-15T06:43:15.594Z,88.00
2023-02-15T06:48:19.063Z,87.83
2023-02-15T06:53:21.098Z,87.37
2023-02-15T06:58:21.735Z,87.52
2023-02-15T07:03:22.419Z,86.94
2023-02-15T07:08:24.612Z,86.28
2023-02-15T07:13:25.301Z,86.00
2023-02-15T07:18:26.105Z,85.90
2023-02-15T07:23:28.310Z,85.71
2023-02-15T07:28:29.061Z,84.75
2023-02-15T07:33:29.942Z,84.26
2023-02-15T07:38:34.766Z,84.15
2023-02-15T07:43:37.151Z,83.28
2023-02-15T07:48:38.357Z,82.76
2023-02-15T07:53:40.806Z,82.06
2023-02-15T07:58:53.915Z,81.49
2023-02-15T08:03:55.498Z,81.58
2023-02-15T08:08:57.711Z,81.01
2023-02-15T08:14:00.987Z,80.71
2023-02-15T08:19:03.465Z,79.17
2023-02-15T08:24:07.082Z,79.29
2023-02-15T08:29:08.908Z,78.32
2023-02-15T08:34:10.445Z,77.54
2023-02-15T08:39:13.133Z,77.14
2023-02-15T08:44:14.497Z,77.49
2023-02-15T08:49:18.848Z,76.94
2023-02-15T08:54:22.932Z,77.04
2023-02-15T08:59:25.149Z,76.24
2023-02-15T09:04:25.834Z,75.22
2023-02-15T09:09:28.035Z,74.34
2023-02-15T09:14:29.132Z,73.59
2023-02-15T09:19:30.087Z,73.68
2023-02-15T09:24:34.118Z,73.23
2023-02-15T09:29:34.904Z,73.35
2023-02-15T09:34:35.892Z,73.22
2023-02-15T09:39:41.403Z,72.42
2023-02-15T09:45:04.551Z,72.61
2023-02-15T09:50:15.669Z,71.36
2023-02-15T09:55:37.647Z,70.87
2023-02-15T10:00:52.028Z,71.27
2023-02-15T10:06:07.602Z,71.88
2023-02-15T10:11:33.996Z,69.72
2023-02-15T10:16:46.662Z,67.43
2023-02-15T10:22:00.883Z,66.81
2023-02-15T10:27:12.572Z,67.99
2023-02-15T10:32:24.808Z,68.13
2023-02-15T10:37:43.434Z,68.53
2023-02-15T10:43:05.387Z,69.16
2023-02-15T10:48:25.437Z,68.67
2023-02-15T10:53:40.266Z,68.92
2023-02-15T10:58:59.676Z,68.13
2023-02-15T11:04:38.146Z,67.31
2023-02-15T11:09:43.347Z,67.12
2023-02-15T11:14:52.006Z,66.33
2023-02-15T11:19:59.054Z,67.21
2023-02-15T11:25:00.766Z,67.26
2023-02-15T11:30:05.776Z,65.88
2023-02-15T11:35:19.985Z,65.75
2023-02-15T11:40:25.639Z,64.76
2023-02-15T11:45:31.582Z,65.71
2023-02-15T11:50:34.608Z,64.35
2023-02-15T11:55:36.115Z,64.34
2023-02-15T12:00:41.522Z,64.57
2023-02-15T12:05:46.509Z,63.64
2023-02-15T12:10:59.182Z,63.77
2023-02-15T12:16:11.115Z,63.66
2023-02-15T12:21:14.761Z,63.66
2023-02-15T12:26:15.998Z,62.87
2023-02-15T12:31:25.125Z,62.25
2023-02-15T12:36:31.313Z,62.91
2023-02-15T12:41:32.193Z,61.69
2023-02-15T12:46:37.958Z,61.27
2023-02-15T12:51:47.252Z,61.89
2023-02-15T12:56:47.922Z,61.29
2023-02-15T13:01:50.869Z,60.44
2023-02-15T13:06:53.945Z,60.93
2023-02-15T13:11:55.186Z,60.15
2023-02-15T13:17:01.663Z,60.24
2023-02-15T13:22:07.539Z,59.92
2023-02-15T13:27:16.973Z,59.92
2023-02-15T13:32:27.614Z,59.52
2023-02-15T13:37:44.905Z,60.06
2023-02-15T13:42:53.463Z,60.36
2023-02-15T13:48:01.959Z,60.03
2023-02-15T13:53:22.494Z,58.86
2023-02-15T13:58:40.803Z,58.98
2023-02-15T14:04:12.640Z,59.31
2023-02-15T14:09:26.673Z,59.16
2023-02-15T14:14:49.588Z,59.63
2023-02-15T14:19:56.449Z,59.79
2023-02-15T14:25:14.564Z,60.76
2023-02-15T14:30:20.496Z,60.91
2023-02-15T14:35:26.110Z,61.98
2023-02-15T14:40:56.841Z,62.19
2023-02-15T14:46:03.509Z,61.78
2023-02-15T14:51:06.153Z,61.74
2023-02-15T14:56:20.180Z,63.14
2023-02-15T15:01:29.407Z,62.33
2023-02-15T15:06:33.768Z,63.00
2023-02-15T15:11:44.793Z,63.68
2023-02-15T15:16:53.322Z,64.27
2023-02-15T15:21:56.871Z,64.10
2023-02-15T15:27:31.006Z,65.58
2023-02-15T15:32:34.968Z,65.76
2023-02-15T15:38:26.428Z,65.55
2023-02-15T15:43:59.839Z,66.46
2023-02-15T15:49:05.015Z,67.07
2023-02-15T15:54:09.447Z,68.49
2023-02-15T15:59:19.113Z,68.87
2023-02-15T16:04:28.461Z,69.71
2023-02-15T16:09:30.464Z,70.43
2023-02-15T16:14:33.683Z,70.80
2023-02-15T16:19:37.452Z,71.51
2023-02-15T16:25:07.771Z,72.58
2023-02-15T16:30:25.344Z,73.23
2023-02-15T16:35:26.172Z,73.60
2023-02-15T16:40:54.720Z,74.53
2023-02-15T16:46:04.685Z,74.74
2023-02-15T16:51:05.920Z,75.10
2023-02-15T16:56:08.513Z,75.44
2023-02-15T17:01:12.391Z,75.58
2023-02-15T17:06:24.430Z,76.08
2023-02-15T17:11:36.771Z,76.64
2023-02-15T17:16:39.450Z,76.78
2023-02-15T17:21:44.608Z,76.92
2023-02-15T17:26:52.286Z,77.09
2023-02-15T17:31:54.396Z,77.63
2023-02-15T17:37:03.246Z,78.91
2023-02-15T17:42:05.499Z,77.92
2023-02-15T17:47:06.426Z,77.64
2023-02-15T17:52:08.471Z,77.97
2023-02-15T17:57:14.399Z,78.54
2023-02-15T18:02:32.589Z,79.09
2023-02-15T18:07:51.017Z,78.67
2023-02-15T18:12:53.042Z,79.14
2023-02-15T18:17:54.283Z,79.17
2023-02-15T18:22:55.503Z,79.42
2023-02-15T18:27:57.601Z,80.05
2023-02-15T18:33:00.479Z,84.28
2023-02-15T18:38:02.375Z,81.42
2023-02-15T18:43:04.403Z,80.75
2023-02-15T18:48:07.315Z,79.77
2023-02-15T18:53:14.522Z,79.96
2023-02-15T18:58:18.571Z,79.98
2023-02-15T19:03:19.294Z,80.42
2023-02-15T19:08:24.556Z,80.47
2023-02-15T19:13:26.957Z,80.49
2023-02-15T19:18:27.682Z,80.61
2023-02-15T19:23:28.343Z,80.92
2023-02-15T19:28:33.227Z,80.63
2023-02-15T19:33:34.649Z,79.94
2023-02-15T19:38:36.873Z,80.35
2023-02-15T19:43:39.192Z,80.80
2023-02-15T19:48:39.872Z,80.39
2023-02-15T19:53:40.937Z,81.27
2023-02-15T19:58:42.938Z,81.00
2023-02-15T20:03:43.609Z,81.30
2023-02-15T20:08:45.180Z,81.60
2023-02-15T20:13:47.270Z,81.17
2023-02-15T20:18:48.049Z,81.71
2023-02-15T20:23:48.869Z,81.26
2023-02-15T20:28:51.065Z,81.37
2023-02-15T20:33:52.032Z,81.60
2023-02-15T20:38:52.758Z,81.14
2023-02-15T20:43:54.894Z,81.29
2023-02-15T20:48:55.597Z,81.12
2023-02-15T20:53:56.302Z,81.17
2023-02-15T20:58:58.387Z,81.20
2023-02-15T21:03:59.093Z,80.81
2023-02-15T21:08:59.837Z,80.85
2023-02-15T21:14:01.916Z,80.77
2023-02-15T21:19:02.734Z,80.68
2023-02-15T21:24:03.479Z,80.25
2023-02-15T21:29:05.546Z,80.64
2023-02-15T21:34:06.227Z,80.80
2023-02-15T21:39:07.702Z,80.21
2023-02-15T21:44:34.558Z,80.53
2023-02-15T21:49:35.308Z,80.66
2023-02-15T21:54:36.027Z,80.21
2023-02-15T21:59:38.103Z,80.67
2023-02-15T22:04:39.614Z,81.57
2023-02-15T22:09:40.450Z,81.11
2023-02-15T22:14:44.366Z,81.02
2023-02-15T22:19:46.144Z,81.23
2023-02-15T22:24:47.183Z,81.68
2023-02-15T22:29:49.820Z,80.62
2023-02-15T22:34:51.381Z,80.69
2023-02-15T22:39:52.176Z,80.85
2023-02-15T22:44:56.308Z,81.58
2023-02-15T22:49:57.118Z,81.58
2023-02-15T22:54:57.781Z,81.32
2023-02-15T23:00:00.667Z,81.38
2023-02-15T23:05:01.567Z,81.08
2023-02-15T23:10:02.283Z,80.90
2023-02-15T23:15:04.448Z,81.34
2023-02-15T23:20:05.680Z,81.78
2023-02-15T23:25:10.483Z,81.38
2023-02-15T23:30:15.386Z,81.83
2023-02-15T23:35:17.458Z,81.92
2023-02-15T23:40:38.116Z,82.62
2023-02-15T23:45:40.613Z,82.12
2023-02-15T23:50:41.339Z,82.36
2023-02-15T23:55:44.989Z,82.45
